METAR Data
IDs: Format: Raw Decoded Include TAF

Data at: 1502 UTC 18 Aug 2019

PAWM 181456Z AUTO 36006KT 10SM CLR 07/02 A3051 RMK AO2 SLP333 6//// T00670022 56009 PNO $
PAWM 181356Z AUTO 36008KT 10SM CLR 07/03 A3051 RMK AO2 SLP336 T00720028 PNO $
PAWM 181256Z AUTO 34007KT 10SM CLR 08/03 A3052 RMK AO2 SLP339 T00830033 PNO $
PAWM 181156Z AUTO 36006KT 10SM CLR 08/04 A3053 RMK AO2 SLP342 6//// 7//// T00830039 10150 20083 56007 PNO $
PAWM 181056Z AUTO 35008KT 10SM CLR 09/04 A3054 RMK AO2 SLP344 T00890039 PNO $
PAWM 180956Z AUTO 35007KT 10SM CLR 11/03 A3055 RMK AO2 SLP347 T01060033 PNO $
PAWM 180856Z AUTO 01006KT 10SM CLR 11/04 A3056 RMK AO2 SLP350 6//// T01110039 401720050 56003 PNO $
PAWM 180756Z AUTO 36006KT 10SM CLR 12/04 A3056 RMK AO2 SLP351 T01170039 PNO $
PAWM 180656Z AUTO 02006KT 10SM CLR 13/04 A3056 RMK AO2 SLP351 T01330039 PNO $
PAWM 180556Z AUTO 07004KT 10SM CLR 15/05 A3057 RMK AO2 SLP353 6//// T01500050 10172 20150 58008 PNO $
PAWM 180456Z AUTO 02003KT 10SM CLR 16/06 A3057 RMK AO2 SLP355 T01610056 PNO $
PAWM 180356Z AUTO 04005KT 10SM CLR 17/04 A3058 RMK AO2 SLP359 T01670044 PNO $
PAWM 180256Z AUTO VRB06KT 10SM CLR 17/04 A3059 RMK AO2 SLP361 6//// T01670044 58007 PNO $
PAWM 180156Z AUTO 36007KT 9SM CLR 17/04 A3060 RMK AO2 SLP364 T01670039 PNO $
PAWM 180056Z AUTO 02009KT 9SM CLR 17/03 A3060 RMK AO2 SLP366 T01670033 PNO $
PAWM 172356Z AUTO 36009KT 330V030 9SM CLR 17/03 A3061 RMK AO2 SLP368 6//// T01670028 10167 20078 58012 PNO $
PAWM 172256Z AUTO VRB04KT 9SM CLR 15/04 A3063 RMK AO2 SLP375 T01500039 PNO $
PAWM 172156Z AUTO 34005KT 9SM CLR 15/06 A3064 RMK AO2 SLP378 T01500056 PNO $
PAWM 172056Z AUTO 35004KT 9SM CLR 13/06 A3064 RMK AO2 SLP380 6//// T01330061 51003 PNO $
PAWM 171956Z AUTO 34005KT 10SM CLR 12/07 A3064 RMK AO2 SLP380 T01170067 PNO $
PAWM 171856Z AUTO 34005KT 9SM CLR 10/07 A3064 RMK AO2 SLP377 T01000067 PNO $
PAWM 171756Z AUTO 36007KT 10SM CLR 08/06 A3063 RMK AO2 SLP376 6//// T00780056 10078 20050 53004 PNO $
PAWM 171656Z AUTO 36004KT 10SM CLR 06/05 A3063 RMK AO2 SLP374 T00610050 PNO $
PAWM 171556Z AUTO 36011KT 10SM CLR 06/04 A3062 RMK AO2 SLP371 T00560044 PNO $
PAWM 171456Z AUTO 34007KT 10SM CLR 06/04 A3062 RMK AO2 SLP372 6//// T00560039 53007 PNO $
PAWM 171356Z AUTO 35011KT 10SM CLR 06/04 A3061 RMK AO2 SLP369 T00560039 PNO $
PAWM 171256Z AUTO 36009KT 10SM CLR 05/04 A3060 RMK AO2 SLP365 T00500039 PNO $
PAWM 171156Z AUTO 36009KT 10SM CLR 06/04 A3060 RMK AO2 SLP364 6//// 7//// T00610044 10106 20056 51009 PNO $
PAWM 171056Z AUTO 01008KT 10SM CLR 06/04 A3059 RMK AO2 SLP362 T00610039 PNO $
PAWM 170956Z AUTO 35008KT 10SM CLR 06/04 A3058 RMK AO2 SLP359 T00610044 PNO $
PAWM 170856Z AUTO 36007KT 10SM CLR 08/05 A3057 RMK AO2 SLP355 6//// T00780050 401390072 51019 PNO $
PAWM 170756Z AUTO 35006KT 10SM CLR 08/05 A3056 RMK AO2 SLP352 T00780050 PNO $
PAWM 170656Z AUTO 01006KT 10SM CLR 09/05 A3054 RMK AO2 SLP344 T00890050 PNO $
PAWM 170556Z AUTO 02007KT 10SM CLR 11/06 A3051 RMK AO2 SLP335 6//// T01060056 10139 20106 53014 PNO $
PAWM 170456Z AUTO 01007KT 10SM FEW036 12/06 A3049 RMK AO2 SLP329 T01220056 PNO $
PAWM 170356Z AUTO 33013KT 10SM CLR 13/07 A3047 RMK AO2 SLP322 T01280067 PNO $